Time,TemperatureF,DewpointF,PressureIn,WindDirection,WindDirectionDegrees,WindSpeedMPH,WindSpeedGustMPH,Humidity,HourlyPrecipIn,Conditions,Clouds,dailyrainin,SoftwareType,DateUTC
2013-01-11 00:03:00,40.0,31.0,-100.00,ESE,120,0.0,0.0,68,0.00,,,-99.99,,2013-01-11 05:03:00,
2013-01-11 00:13:00,40.0,31.0,-100.00,SE,140,0.0,0.0,70,0.00,,,-99.99,,2013-01-11 05:13:00,
2013-01-11 00:22:00,41.0,31.0,-100.00,SE,140,0.0,0.0,69,0.00,,,-99.99,,2013-01-11 05:22:00,
2013-01-11 00:33:00,41.0,31.0,-100.00,ESE,110,0.0,0.0,69,0.00,,,-99.99,,2013-01-11 05:33:00,
2013-01-11 00:43:00,40.0,32.0,-100.00,ESE,115,0.0,0.0,72,0.00,,,-99.99,,2013-01-11 05:43:00,
2013-01-11 00:52:00,40.0,32.0,-100.00,ESE,120,0.0,0.0,71,0.00,,,-99.99,,2013-01-11 05:52:00,
2013-01-11 01:03:00,40.0,32.0,-100.00,SE,130,0.0,0.0,73,0.00,,,-99.99,,2013-01-11 06:03:00,
2013-01-11 01:12:00,40.0,32.0,-100.00,SE,130,0.0,0.0,73,0.00,,,-99.99,,2013-01-11 06:12:00,
2013-01-11 01:22:00,40.0,33.0,-100.00,SE,125,0.0,0.0,73,0.00,,,-99.99,,2013-01-11 06:22:00,
2013-01-11 01:32:00,41.0,33.0,-100.00,SE,135,0.0,0.0,74,0.00,,,-99.99,,2013-01-11 06:32:00,
2013-01-11 01:42:00,41.0,33.0,-100.00,SE,135,0.0,0.0,74,0.00,,,-99.99,,2013-01-11 06:42:00,
2013-01-11 01:52:00,41.0,34.0,-100.00,SE,135,0.0,0.0,74,-99.99,,,-99.99,,2013-01-11 06:52:00,
2013-01-11 02:02:00,41.0,34.0,-100.00,SE,135,0.0,0.0,75,0.00,,,-99.99,,2013-01-11 07:02:00,
2013-01-11 02:12:00,42.0,35.0,-100.00,SE,130,0.0,0.0,75,0.00,,,-99.99,,2013-01-11 07:12:00,
2013-01-11 02:22:00,42.0,35.0,-100.00,SE,135,0.0,0.0,76,0.00,,,-99.99,,2013-01-11 07:22:00,
2013-01-11 02:32:00,42.0,35.0,-100.00,SE,140,0.0,0.0,76,0.00,,,-99.99,,2013-01-11 07:32:00,
2013-01-11 02:42:00,42.0,36.0,-100.00,SE,145,0.0,0.0,77,0.00,,,-99.99,,2013-01-11 07:42:00,
2013-01-11 02:52:00,43.0,36.0,-100.00,SE,130,0.0,0.0,77,0.00,,,-99.99,,2013-01-11 07:52:00,
2013-01-11 03:02:00,42.0,36.0,-100.00,SE,140,0.0,0.0,79,0.00,,,-99.99,,2013-01-11 08:02:00,
2013-01-11 03:12:00,43.0,37.0,-100.00,SE,135,0.0,0.0,79,0.00,,,-99.99,,2013-01-11 08:12:00,
2013-01-11 03:22:00,43.0,37.0,-100.00,SE,130,0.0,0.0,80,0.00,,,-99.99,,2013-01-11 08:22:00,
2013-01-11 03:32:00,43.0,38.0,-100.00,SE,125,0.0,0.0,83,0.00,,,-99.99,,2013-01-11 08:32:00,
2013-01-11 03:42:00,43.0,38.0,-100.00,SE,130,0.0,0.0,83,0.00,,,-99.99,,2013-01-11 08:42:00,
2013-01-11 03:52:00,43.0,39.0,-100.00,SE,135,0.0,0.0,83,0.00,,,-99.99,,2013-01-11 08:52:00,
2013-01-11 04:02:00,44.0,39.0,-100.00,SE,130,0.0,0.0,84,0.00,,,-99.99,,2013-01-11 09:02:00,
2013-01-11 04:12:00,45.0,40.0,-100.00,SE,135,0.0,0.0,84,0.00,,,-99.99,,2013-01-11 09:12:00,
2013-01-11 04:23:00,45.0,41.0,-100.00,SE,135,0.0,0.0,85,0.00,,,-99.99,,2013-01-11 09:23:00,
2013-01-11 04:32:00,45.0,41.0,-100.00,SE,135,0.0,0.0,85,0.00,,,-99.99,,2013-01-11 09:32:00,
2013-01-11 04:42:00,47.0,43.0,-100.00,SE,130,0.0,0.0,86,0.00,,,-99.99,,2013-01-11 09:42:00,
2013-01-11 04:52:00,46.0,42.0,-100.00,SSE,150,0.0,0.0,85,0.00,,,-99.99,,2013-01-11 09:52:00,
2013-01-11 05:02:00,47.0,43.0,-100.00,SE,140,0.0,0.0,87,10.75,,,-99.99,,2013-01-11 10:02:00,
2013-01-11 05:12:00,47.0,44.0,-100.00,SE,145,0.0,0.0,89,0.00,,,-99.99,,2013-01-11 10:12:00,
2013-01-11 05:22:00,48.0,45.0,-100.00,SSE,150,0.0,0.0,89,0.00,,,-99.99,,2013-01-11 10:22:00,
2013-01-11 05:32:00,49.0,46.0,-100.00,SE,145,0.0,0.0,88,0.55,,,-99.99,,2013-01-11 10:32:00,
2013-01-11 05:42:00,48.0,45.0,-100.00,SSE,150,0.0,0.0,88,0.00,,,-99.99,,2013-01-11 10:42:00,
2013-01-11 05:52:00,49.0,45.0,-100.00,SSE,150,0.0,0.0,88,3.39,,,-99.99,,2013-01-11 10:52:00,
2013-01-11 06:03:00,48.0,46.0,-100.00,SSE,150,0.0,0.0,92,25.51,,,-99.99,,2013-01-11 11:03:00,
2013-01-11 06:12:00,48.0,46.0,-100.00,SSE,150,0.0,0.0,94,20.94,,,-99.99,,2013-01-11 11:12:00,
2013-01-11 06:22:00,48.0,47.0,-100.00,SE,135,0.0,0.0,96,1.69,,,-99.99,,2013-01-11 11:22:00,
2013-01-11 06:33:00,48.0,47.0,-100.00,SSE,150,0.0,0.0,97,9.61,,,-99.99,,2013-01-11 11:33:00,
2013-01-11 06:42:00,49.0,47.0,-100.00,SE,145,0.0,0.0,96,9.06,,,-99.99,,2013-01-11 11:42:00,
2013-01-11 06:52:00,49.0,48.0,-100.00,SSE,160,0.0,0.0,95,0.00,,,-99.99,,2013-01-11 11:52:00,
2013-01-11 07:03:00,49.0,48.0,-100.00,SE,145,0.0,0.0,94,0.00,,,-99.99,,2013-01-11 12:03:00,
2013-01-11 07:12:00,49.0,48.0,-100.00,South,170,0.0,0.0,94,0.00,,,-99.99,,2013-01-11 12:12:00,
2013-01-11 07:22:00,49.0,48.0,-100.00,South,170,0.0,0.0,95,26.06,,,-99.99,,2013-01-11 12:22:00,
2013-01-11 07:33:00,49.0,48.0,-100.00,South,180,0.0,0.0,96,0.00,,,-99.99,,2013-01-11 12:33:00,
2013-01-11 07:42:00,49.0,48.0,-100.00,South,170,0.0,0.0,96,9.61,,,-99.99,,2013-01-11 12:42:00,
2013-01-11 07:52:00,49.0,48.0,-100.00,SSE,165,0.0,0.0,97,13.03,,,-99.99,,2013-01-11 12:52:00,
2013-01-11 08:03:00,49.0,49.0,-100.00,SSE,160,0.0,0.0,97,17.56,,,-99.99,,2013-01-11 13:03:00,
2013-01-11 08:13:00,50.0,50.0,-100.00,South,175,0.0,0.0,98,20.94,,,-99.99,,2013-01-11 13:13:00,
2013-01-11 08:22:00,50.0,49.0,-100.00,WSW,255,0.0,0.0,98,-99.99,,,-99.99,,2013-01-11 13:22:00,
2013-01-11 08:33:00,49.0,48.0,-100.00,SW,215,0.0,0.0,98,-99.99,,,-99.99,,2013-01-11 13:33:00,
2013-01-11 08:42:00,48.0,48.0,-100.00,South,180,0.0,0.0,98,2.83,,,-99.99,,2013-01-11 13:42:00,
2013-01-11 08:52:00,48.0,48.0,-100.00,ESE,115,0.0,0.0,98,0.00,,,-99.99,,2013-01-11 13:52:00,
2013-01-11 09:03:00,49.0,48.0,-100.00,SE,125,0.0,0.0,99,0.00,,,-99.99,,2013-01-11 14:03:00,
2013-01-11 09:12:00,50.0,49.0,-100.00,ESE,120,0.0,0.0,99,0.00,,,-99.99,,2013-01-11 14:12:00,
2013-01-11 09:23:00,49.0,49.0,-100.00,SE,135,0.0,0.0,98,0.00,,,-99.99,,2013-01-11 14:23:00,
2013-01-11 09:33:00,50.0,49.0,-100.00,SE,130,0.0,0.0,98,0.00,,,-99.99,,2013-01-11 14:33:00,
2013-01-11 09:43:00,50.0,49.0,-100.00,SE,145,0.0,0.0,97,0.00,,,-99.99,,2013-01-11 14:43:00,
2013-01-11 09:53:00,50.0,49.0,-100.00,SE,145,0.0,0.0,97,0.00,,,-99.99,,2013-01-11 14:53:00,
2013-01-11 10:03:00,50.0,49.0,-100.00,SSE,155,0.0,0.0,96,0.00,,,-99.99,,2013-01-11 15:03:00,
2013-01-11 10:13:00,51.0,49.0,-100.00,SSE,165,0.0,0.0,95,0.00,,,-99.99,,2013-01-11 15:13:00,
2013-01-11 10:23:00,52.0,51.0,-100.00,SSE,165,12.0,19.0,95,0.00,,,-99.99,,2013-01-11 15:23:00,
2013-01-11 10:33:00,52.0,51.0,-100.00,South,170,17.0,27.0,94,0.00,,,-99.99,,2013-01-11 15:33:00,
2013-01-11 10:43:00,53.0,51.0,-100.00,South,175,12.0,24.0,94,0.00,,,-99.99,,2013-01-11 15:43:00,
2013-01-11 10:52:00,53.0,51.0,-100.00,South,190,13.0,20.0,94,0.00,,,-99.99,,2013-01-11 15:52:00,
2013-01-11 11:03:00,53.0,52.0,-100.00,South,185,13.0,21.0,93,0.00,,,-99.99,,2013-01-11 16:03:00,
2013-01-11 11:12:00,54.0,52.0,-100.00,SSW,200,14.0,25.0,93,0.00,,,-99.99,,2013-01-11 16:12:00,
2013-01-11 11:22:00,54.0,52.0,-100.00,South,190,14.0,22.0,93,0.00,,,-99.99,,2013-01-11 16:22:00,
2013-01-11 11:33:00,54.0,52.0,-100.00,South,190,9.0,22.0,93,0.00,,,-99.99,,2013-01-11 16:33:00,
2013-01-11 11:42:00,54.0,52.0,-100.00,South,190,12.0,19.0,92,0.00,,,-99.99,,2013-01-11 16:42:00,
2013-01-11 11:52:00,54.0,52.0,-100.00,SSW,195,9.0,22.0,92,0.00,,,-99.99,,2013-01-11 16:52:00,
2013-01-11 12:03:00,54.0,52.0,-100.00,SSW,195,7.0,16.0,91,0.00,,,-99.99,,2013-01-11 17:03:00,
2013-01-11 12:12:00,54.0,52.0,-100.00,SW,220,6.0,12.0,91,0.00,,,-99.99,,2013-01-11 17:12:00,
2013-01-11 12:22:00,55.0,52.0,-100.00,SSW,200,4.0,13.0,90,0.00,,,-99.99,,2013-01-11 17:22:00,
2013-01-11 12:33:00,55.0,52.0,-100.00,South,185,6.0,13.0,90,0.00,,,-99.99,,2013-01-11 17:33:00,
2013-01-11 12:43:00,56.0,52.0,-100.00,SSW,205,6.0,15.0,89,0.00,,,-99.99,,2013-01-11 17:43:00,
2013-01-11 12:53:00,57.0,52.0,-100.00,SSW,195,8.0,15.0,83,0.00,,,-99.99,,2013-01-11 17:53:00,
2013-01-11 13:04:00,57.0,52.0,-100.00,SW,225,7.0,16.0,83,0.00,,,-99.99,,2013-01-11 18:04:00,
2013-01-11 13:13:00,57.0,51.0,-100.00,SSW,195,9.0,16.0,82,0.00,,,-99.99,,2013-01-11 18:13:00,
2013-01-11 13:23:00,57.0,51.0,-100.00,SW,215,10.0,17.0,81,0.00,,,-99.99,,2013-01-11 18:23:00,
2013-01-11 13:33:00,57.0,51.0,-100.00,WSW,245,4.0,13.0,81,0.00,,,-99.99,,2013-01-11 18:33:00,
2013-01-11 13:43:00,56.0,51.0,-100.00,SW,220,6.0,11.0,81,0.00,,,-99.99,,2013-01-11 18:43:00,
2013-01-11 13:53:00,56.0,51.0,-100.00,SSW,205,6.0,12.0,82,0.00,,,-99.99,,2013-01-11 18:53:00,
2013-01-11 14:03:00,56.0,51.0,-100.00,SW,220,4.0,9.0,84,0.00,,,-99.99,,2013-01-11 19:03:00,
2013-01-11 14:12:00,55.0,51.0,-100.00,SW,235,6.0,9.0,85,0.55,,,-99.99,,2013-01-11 19:12:00,
2013-01-11 14:22:00,55.0,51.0,-100.00,SSW,195,4.0,9.0,86,0.55,,,-99.99,,2013-01-11 19:22:00,
2013-01-11 14:33:00,55.0,51.0,-100.00,SW,220,6.0,10.0,88,2.24,,,-99.99,,2013-01-11 19:33:00,
2013-01-11 14:43:00,55.0,51.0,-100.00,SW,220,3.0,7.0,89,0.00,,,-99.99,,2013-01-11 19:43:00,
2013-01-11 14:53:00,55.0,51.0,-100.00,WSW,250,4.0,9.0,89,0.00,,,-99.99,,2013-01-11 19:53:00,
2013-01-11 15:03:00,55.0,51.0,-100.00,WSW,250,8.0,12.0,86,0.00,,,-99.99,,2013-01-11 20:03:00,
2013-01-11 15:12:00,56.0,52.0,-100.00,SW,220,5.0,14.0,84,0.00,,,-99.99,,2013-01-11 20:12:00,
2013-01-11 15:22:00,56.0,50.0,-100.00,SW,235,6.0,16.0,80,0.00,,,-99.99,,2013-01-11 20:22:00,
2013-01-11 15:33:00,57.0,50.0,-100.00,SW,235,7.0,14.0,79,0.00,,,-99.99,,2013-01-11 20:33:00,
2013-01-11 15:43:00,57.0,51.0,-100.00,South,190,4.0,11.0,79,0.00,,,-99.99,,2013-01-11 20:43:00,
2013-01-11 15:52:00,57.0,49.0,-100.00,SW,225,8.0,16.0,76,0.00,,,-99.99,,2013-01-11 20:52:00,
2013-01-11 16:03:00,56.0,50.0,-100.00,SW,220,7.0,14.0,77,0.00,,,-99.99,,2013-01-11 21:03:00,
2013-01-11 16:12:00,57.0,49.0,-100.00,WSW,245,7.0,14.0,75,0.00,,,-99.99,,2013-01-11 21:12:00,
2013-01-11 16:23:00,57.0,49.0,-100.00,SW,220,10.0,19.0,73,0.00,,,-99.99,,2013-01-11 21:23:00,
2013-01-11 16:33:00,57.0,49.0,-100.00,SSW,200,6.0,13.0,74,0.00,,,-99.99,,2013-01-11 21:33:00,
2013-01-11 16:42:00,57.0,48.0,-100.00,South,180,6.0,14.0,72,0.00,,,-99.99,,2013-01-11 21:42:00,
2013-01-11 16:52:00,56.0,48.0,-100.00,WSW,245,7.0,14.0,73,0.00,,,-99.99,,2013-01-11 21:52:00,
2013-01-11 17:03:00,56.0,47.0,-100.00,SW,215,5.0,12.0,73,0.00,,,-99.99,,2013-01-11 22:03:00,
2013-01-11 17:12:00,56.0,47.0,-100.00,SSW,205,4.0,12.0,73,0.00,,,-99.99,,2013-01-11 22:12:00,
2013-01-11 17:22:00,55.0,47.0,-100.00,South,185,5.0,9.0,74,0.00,,,-99.99,,2013-01-11 22:22:00,
2013-01-11 17:33:00,55.0,47.0,-100.00,SSW,195,4.0,9.0,77,0.00,,,-99.99,,2013-01-11 22:33:00,
2013-01-11 17:42:00,54.0,47.0,-100.00,South,180,4.0,7.0,77,0.00,,,-99.99,,2013-01-11 22:42:00,
2013-01-11 17:52:00,53.0,47.0,-100.00,South,180,6.0,8.0,79,0.00,,,-99.99,,2013-01-11 22:52:00,
2013-01-11 18:02:00,53.0,47.0,-100.00,South,175,5.0,8.0,82,0.00,,,-99.99,,2013-01-11 23:02:00,
2013-01-11 18:13:00,52.0,47.0,-100.00,South,175,5.0,8.0,83,0.00,,,-99.99,,2013-01-11 23:13:00,
2013-01-11 18:22:00,52.0,47.0,-100.00,South,175,5.0,8.0,83,0.00,,,-99.99,,2013-01-11 23:22:00,
2013-01-11 18:33:00,52.0,47.0,-100.00,South,180,4.0,7.0,84,0.00,,,-99.99,,2013-01-11 23:33:00,
2013-01-11 18:43:00,52.0,47.0,-100.00,South,180,4.0,7.0,84,0.00,,,-99.99,,2013-01-11 23:43:00,
2013-01-11 18:53:00,51.0,47.0,-100.00,South,180,4.0,8.0,87,0.00,,,-99.99,,2013-01-11 23:53:00,
2013-01-11 19:03:00,51.0,47.0,-100.00,South,185,7.0,10.0,86,0.00,,,-99.99,,2013-01-12 00:03:00,
2013-01-11 19:12:00,51.0,47.0,-100.00,South,170,6.0,9.0,87,0.00,,,-99.99,,2013-01-12 00:12:00,
2013-01-11 19:23:00,51.0,47.0,-100.00,South,180,5.0,8.0,88,0.00,,,-99.99,,2013-01-12 00:23:00,
2013-01-11 19:33:00,51.0,47.0,-100.00,South,180,5.0,8.0,87,0.00,,,-99.99,,2013-01-12 00:33:00,
2013-01-11 19:43:00,50.0,47.0,-100.00,South,170,6.0,9.0,88,0.00,,,-99.99,,2013-01-12 00:43:00,
2013-01-11 19:52:00,51.0,47.0,-100.00,South,180,5.0,9.0,87,0.00,,,-99.99,,2013-01-12 00:52:00,
2013-01-11 20:02:00,51.0,47.0,-100.00,South,180,6.0,11.0,87,0.00,,,-99.99,,2013-01-12 01:02:00,
2013-01-11 20:12:00,51.0,47.0,-100.00,South,180,5.0,9.0,86,0.00,,,-99.99,,2013-01-12 01:12:00,
2013-01-11 20:22:00,51.0,47.0,-100.00,South,180,6.0,9.0,86,0.00,,,-99.99,,2013-01-12 01:22:00,
2013-01-11 20:33:00,49.0,46.0,-100.00,SSE,165,4.0,7.0,89,0.00,,,-99.99,,2013-01-12 01:33:00,
2013-01-11 20:43:00,50.0,46.0,-100.00,South,170,4.0,10.0,87,0.00,,,-99.99,,2013-01-12 01:43:00,
2013-01-11 20:52:00,50.0,46.0,-100.00,SSE,165,4.0,9.0,87,0.00,,,-99.99,,2013-01-12 01:52:00,
2013-01-11 21:02:00,49.0,46.0,-100.00,South,170,4.0,9.0,89,0.00,,,-99.99,,2013-01-12 02:02:00,
2013-01-11 21:12:00,49.0,46.0,-100.00,SSE,165,3.0,7.0,88,0.00,,,-99.99,,2013-01-12 02:12:00,
2013-01-11 21:22:00,49.0,46.0,-100.00,SSE,155,5.0,6.0,88,0.00,,,-99.99,,2013-01-12 02:22:00,
2013-01-11 21:33:00,50.0,46.0,-100.00,SSE,165,6.0,9.0,87,0.00,,,-99.99,,2013-01-12 02:33:00,
2013-01-11 21:43:00,49.0,46.0,-100.00,South,170,6.0,12.0,87,0.00,,,-99.99,,2013-01-12 02:43:00,
2013-01-11 21:53:00,51.0,47.0,-100.00,South,170,7.0,13.0,84,0.00,,,-99.99,,2013-01-12 02:53:00,
2013-01-11 22:03:00,52.0,47.0,-100.00,South,175,10.0,15.0,82,0.00,,,-99.99,,2013-01-12 03:03:00,
2013-01-11 22:12:00,52.0,47.0,-100.00,South,175,10.0,15.0,82,0.00,,,-99.99,,2013-01-12 03:12:00,
2013-01-11 22:22:00,52.0,47.0,-100.00,South,175,7.0,14.0,83,0.00,,,-99.99,,2013-01-12 03:22:00,
2013-01-11 22:33:00,52.0,47.0,-100.00,South,170,6.0,12.0,83,0.00,,,-99.99,,2013-01-12 03:33:00,
2013-01-11 22:43:00,52.0,47.0,-100.00,South,170,8.0,12.0,83,0.00,,,-99.99,,2013-01-12 03:43:00,
2013-01-11 22:53:00,52.0,47.0,-100.00,South,175,7.0,11.0,83,0.00,,,-99.99,,2013-01-12 03:53:00,
2013-01-11 23:02:00,52.0,47.0,-100.00,South,175,9.0,15.0,82,0.00,,,-99.99,,2013-01-12 04:02:00,
2013-01-11 23:12:00,53.0,47.0,-100.00,South,175,10.0,14.0,80,0.00,,,-99.99,,2013-01-12 04:12:00,
2013-01-11 23:22:00,53.0,47.0,-100.00,South,170,9.0,14.0,79,0.00,,,-99.99,,2013-01-12 04:22:00,
2013-01-11 23:32:00,52.0,47.0,-100.00,South,185,9.0,14.0,80,0.00,,,-99.99,,2013-01-12 04:32:00,
2013-01-11 23:42:00,53.0,47.0,-100.00,SSW,195,9.0,13.0,80,0.00,,,-99.99,,2013-01-12 04:42:00,
2013-01-11 23:52:00,52.0,46.0,-100.00,South,175,7.0,13.0,80,0.00,,,-99.99,,2013-01-12 04:52:00,